createdAt,value
2022-09-05T00:02:34.932Z,4.38
2022-09-05T00:07:58.897Z,5.10
2022-09-05T00:13:07.165Z,5.32
2022-09-05T00:23:17.593Z,6.72
2022-09-05T00:24:37.159Z,6.63
2022-09-05T00:31:07.719Z,7.75
2022-09-05T00:35:30.761Z,6.95
2022-09-05T00:40:38.604Z,8.02
2022-09-05T00:45:49.000Z,7.80
2022-09-05T00:51:01.857Z,8.02
2022-09-05T00:56:19.740Z,6.32
2022-09-05T01:01:43.039Z,5.28
2022-09-05T01:07:02.785Z,6.28
2022-09-05T01:12:22.609Z,5.60
2022-09-05T01:17:38.385Z,3.95
2022-09-05T01:23:00.652Z,4.78
2022-09-05T01:29:15.698Z,6.53
2022-09-05T01:33:53.987Z,4.43
2022-09-05T01:40:10.526Z,4.75
2022-09-05T01:44:42.454Z,4.10
2022-09-05T01:50:00.729Z,7.13
2022-09-05T01:55:23.435Z,3.58
2022-09-05T02:00:36.444Z,8.98
2022-09-05T02:06:14.309Z,4.78
2022-09-05T02:11:36.060Z,4.63
2022-09-05T02:16:45.719Z,7.00
2022-09-05T02:21:58.713Z,5.95
2022-09-05T02:27:35.857Z,4.93
2022-09-05T02:33:06.378Z,5.43
2022-09-05T02:44:18.281Z,6.70
2022-09-05T02:45:24.502Z,6.32
2022-09-05T02:50:07.033Z,6.68
2022-09-05T02:57:36.694Z,7.60
2022-09-05T03:00:11.537Z,4.32
2022-09-05T03:05:23.657Z,7.50
2022-09-05T03:10:54.128Z,6.72
2022-09-05T03:16:18.315Z,10.07
2022-09-05T03:21:52.012Z,7.63
2022-09-05T03:27:23.693Z,8.48
2022-09-05T03:33:17.782Z,5.78
2022-09-05T03:38:58.901Z,8.02
2022-09-05T03:44:15.904Z,9.77
2022-09-05T03:53:31.033Z,6.78
2022-09-05T03:57:11.961Z,7.45
2022-09-05T04:01:10.777Z,7.15
2022-09-05T04:08:24.160Z,9.27
2022-09-05T04:12:03.455Z,7.82
2022-09-05T04:17:12.070Z,7.10
2022-09-05T04:22:23.786Z,7.63
2022-09-05T04:27:36.252Z,8.32
2022-09-05T04:32:54.654Z,9.32
2022-09-05T04:37:59.501Z,12.65
2022-09-05T04:43:07.522Z,8.80
2022-09-05T04:48:14.965Z,8.27
2022-09-05T04:53:36.635Z,6.38
2022-09-05T05:00:33.801Z,6.55
2022-09-05T05:06:11.395Z,7.00
2022-09-05T05:09:43.222Z,6.72
2022-09-05T05:17:59.918Z,7.50
2022-09-05T05:20:40.497Z,8.68
2022-09-05T05:25:51.562Z,8.95
2022-09-05T05:31:01.569Z,9.48
2022-09-05T05:36:10.105Z,6.63
2022-09-05T05:41:21.053Z,8.52
2022-09-05T05:46:36.364Z,6.60
2022-09-05T05:52:02.103Z,7.40
2022-09-05T05:57:37.109Z,7.88
2022-09-05T06:03:27.027Z,5.97
2022-09-05T06:11:02.335Z,8.55
2022-09-05T06:14:56.050Z,7.25
2022-09-05T06:22:05.781Z,6.03
2022-09-05T06:26:50.099Z,8.27
2022-09-05T06:32:05.237Z,5.45
2022-09-05T06:37:17.299Z,6.28
2022-09-05T06:42:30.636Z,5.10
2022-09-05T06:47:48.055Z,7.13
2022-09-05T06:53:39.319Z,6.75
2022-09-05T06:59:12.040Z,7.90
2022-09-05T07:05:14.600Z,6.20
2022-09-05T07:10:00.377Z,6.82
2022-09-05T07:15:14.345Z,6.85
2022-09-05T07:20:22.698Z,6.27
2022-09-05T07:25:33.144Z,4.90
2022-09-05T07:30:47.496Z,4.68
2022-09-05T07:35:52.589Z,4.03
2022-09-05T07:41:00.632Z,6.85
2022-09-05T07:46:11.775Z,4.55
2022-09-05T07:56:49.196Z,5.38
2022-09-05T07:57:22.310Z,5.15
2022-09-05T08:02:14.596Z,4.70
2022-09-05T08:07:48.121Z,5.97
2022-09-05T08:13:23.044Z,4.40
2022-09-05T08:18:17.938Z,6.10
2022-09-05T08:23:42.521Z,6.47
2022-09-05T08:28:56.454Z,5.63
2022-09-05T08:34:03.777Z,6.20
2022-09-05T08:39:10.338Z,6.20
2022-09-05T08:46:40.509Z,3.88
2022-09-05T08:49:58.837Z,5.90
2022-09-05T08:55:14.492Z,3.78
2022-09-05T09:00:24.161Z,5.53
2022-09-05T09:06:12.003Z,4.30
2022-09-05T09:11:16.950Z,5.38
2022-09-05T09:16:30.881Z,6.25
2022-09-05T09:21:42.113Z,4.77
2022-09-05T09:26:56.687Z,3.72
2022-09-05T09:37:49.970Z,4.82
2022-09-05T09:43:06.368Z,4.65
2022-09-05T09:48:44.227Z,4.43
2022-09-05T09:54:03.870Z,3.88
2022-09-05T09:59:29.344Z,4.38
2022-09-05T10:10:33.220Z,5.22
2022-09-05T10:11:22.496Z,3.95
2022-09-05T10:16:39.778Z,3.42
2022-09-05T10:28:02.199Z,5.10
2022-09-05T10:35:15.177Z,2.90
2022-09-05T10:39:00.918Z,4.30
2022-09-05T10:44:07.340Z,3.17
2022-09-05T10:49:14.468Z,3.72
2022-09-05T10:54:35.609Z,3.50
2022-09-05T11:02:15.833Z,2.92
2022-09-05T11:05:24.615Z,3.33
2022-09-05T11:10:35.069Z,3.47
2022-09-05T11:16:05.037Z,3.42
2022-09-05T11:21:14.545Z,3.83
2022-09-05T11:26:30.659Z,4.80
2022-09-05T11:32:37.078Z,3.97
2022-09-05T11:40:06.814Z,4.38
2022-09-05T11:42:57.749Z,4.15
2022-09-05T11:48:25.056Z,3.63
2022-09-05T11:53:57.342Z,4.50
2022-09-05T11:59:33.445Z,4.97
2022-09-05T12:05:48.494Z,3.97
2022-09-05T12:10:47.116Z,5.10
2022-09-05T12:16:07.277Z,3.07
2022-09-05T12:21:27.141Z,2.97
2022-09-05T12:27:42.468Z,5.22
2022-09-05T12:34:02.726Z,4.20
2022-09-05T12:41:42.381Z,4.32
2022-09-05T12:44:38.392Z,4.07
2022-09-05T12:48:26.449Z,4.03
2022-09-05T12:53:48.825Z,3.13
2022-09-05T13:03:05.296Z,7.60
2022-09-05T13:04:25.328Z,4.28
2022-09-05T13:12:16.326Z,4.78
2022-09-05T13:15:20.049Z,5.38
2022-09-05T13:20:32.490Z,5.53
2022-09-05T13:25:37.268Z,5.10
2022-09-05T13:34:16.188Z,3.97
2022-09-05T13:38:20.158Z,8.18
2022-09-05T13:41:59.394Z,5.68
2022-09-05T13:47:14.758Z,6.50
2022-09-05T13:52:35.602Z,7.30
2022-09-05T13:57:44.329Z,7.60
2022-09-05T14:09:35.268Z,11.52
2022-09-05T14:15:08.175Z,7.20
2022-09-05T14:20:00.047Z,7.38
2022-09-05T14:25:05.367Z,6.95
2022-09-05T14:31:06.045Z,6.20
2022-09-05T14:37:44.167Z,6.95
2022-09-05T14:41:45.742Z,7.45
2022-09-05T14:47:38.689Z,6.50
2022-09-05T15:02:47.706Z,6.97
2022-09-05T15:12:16.059Z,7.82
2022-09-05T15:14:45.972Z,5.63
2022-09-05T15:20:06.609Z,6.53
2022-09-05T15:25:19.221Z,9.07
2022-09-05T15:30:35.158Z,5.80
2022-09-05T15:35:43.380Z,8.30
2022-09-05T15:40:46.208Z,8.38
2022-09-05T15:45:49.873Z,5.55
2022-09-05T15:50:59.020Z,8.80
2022-09-05T15:56:18.725Z,6.65
2022-09-05T16:01:48.592Z,8.50
2022-09-05T16:10:35.221Z,4.70
2022-09-05T16:12:32.077Z,6.20
2022-09-05T16:23:19.108Z,8.65
2022-09-05T16:23:39.346Z,6.00
2022-09-05T16:28:39.413Z,5.17
2022-09-05T16:33:44.378Z,6.35
2022-09-05T16:38:52.589Z,7.72
2022-09-05T16:44:00.273Z,10.95
2022-09-05T16:49:11.676Z,10.18
2022-09-05T16:54:25.434Z,8.02
2022-09-05T16:59:30.933Z,7.43
2022-09-05T17:05:03.649Z,8.10
2022-09-05T17:10:11.743Z,8.60
2022-09-05T17:15:17.985Z,7.68
2022-09-05T17:20:23.202Z,10.18
2022-09-05T17:29:20.505Z,7.80
2022-09-05T17:36:41.361Z,11.20
2022-09-05T17:42:03.476Z,8.15
2022-09-05T17:47:15.190Z,8.70
2022-09-05T17:52:23.339Z,7.35
2022-09-05T17:57:42.054Z,12.70
2022-09-05T18:02:56.115Z,12.85
2022-09-05T18:13:31.813Z,11.75
2022-09-05T18:19:28.101Z,14.10
2022-09-05T18:24:03.264Z,16.13
2022-09-05T18:29:16.997Z,14.27
2022-09-05T18:35:13.223Z,11.55
2022-09-05T18:40:37.084Z,13.67
2022-09-05T18:45:52.674Z,8.98
2022-09-05T18:51:13.822Z,9.13
2022-09-05T18:56:27.849Z,11.23
2022-09-05T19:01:38.042Z,10.02
2022-09-05T19:06:46.560Z,8.18
2022-09-05T19:11:53.916Z,12.68
2022-09-05T19:17:04.194Z,10.82
2022-09-05T19:23:08.294Z,10.95
2022-09-05T19:30:25.031Z,11.40
2022-09-05T19:36:54.504Z,15.48
2022-09-05T19:38:31.147Z,12.45
2022-09-05T19:47:40.240Z,11.43
2022-09-05T19:49:25.825Z,14.70
2022-09-05T19:54:30.627Z,13.57
2022-09-05T19:59:35.178Z,13.48
2022-09-05T20:04:48.289Z,12.77
2022-09-05T20:09:57.821Z,12.35
2022-09-05T20:15:19.999Z,17.83
2022-09-05T20:20:26.308Z,13.88
2022-09-05T20:25:36.544Z,14.13
2022-09-05T20:30:44.016Z,13.75
2022-09-05T20:40:05.488Z,15.65
2022-09-05T20:43:27.335Z,14.68
2022-09-05T20:49:00.843Z,15.98
2022-09-05T20:54:20.152Z,16.10
2022-09-05T20:57:45.006Z,12.93
2022-09-05T21:02:54.622Z,12.57
2022-09-05T21:08:32.082Z,11.95
2022-09-05T21:13:37.669Z,14.73
2022-09-05T21:18:55.102Z,20.65
2022-09-05T21:24:15.810Z,12.63
2022-09-05T21:29:32.542Z,16.98
2022-09-05T21:34:45.172Z,14.50
2022-09-05T21:39:59.436Z,12.88
2022-09-05T21:47:49.493Z,11.45
2022-09-05T21:50:31.481Z,14.77
2022-09-05T21:59:17.168Z,13.73
2022-09-05T22:00:59.276Z,14.23
2022-09-05T22:06:07.148Z,15.77
2022-09-05T22:11:13.912Z,14.85
2022-09-05T22:16:17.062Z,13.73
2022-09-05T22:21:32.938Z,13.45
2022-09-05T22:27:10.765Z,18.60
2022-09-05T22:32:08.710Z,11.38
2022-09-05T22:42:15.924Z,10.63
2022-09-05T22:47:19.909Z,10.63
2022-09-05T22:52:22.721Z,12.40
2022-09-05T22:57:26.905Z,13.25
2022-09-05T23:02:29.648Z,12.32
2022-09-05T23:07:32.896Z,11.80
2022-09-05T23:12:40.020Z,12.15
2022-09-05T23:17:42.913Z,15.05
2022-09-05T23:22:45.684Z,10.80
2022-09-05T23:27:50.528Z,15.52
2022-09-05T23:32:53.846Z,12.23
2022-09-05T23:37:56.604Z,12.20
2022-09-05T23:43:01.266Z,12.07
2022-09-05T23:48:04.359Z,13.10
2022-09-05T23:53:07.113Z,10.85
2022-09-05T23:58:11.893Z,12.40
